createdAt,value
2022-10-02T00:02:11.040Z,11.50
2022-10-02T00:04:41.319Z,11.40
2022-10-02T00:07:12.844Z,11.40
2022-10-02T00:09:43.753Z,11.40
2022-10-02T00:12:12.717Z,11.40
2022-10-02T00:14:41.698Z,11.50
2022-10-02T00:17:12.391Z,11.50
2022-10-02T00:19:40.374Z,11.40
2022-10-02T00:22:17.232Z,11.50
2022-10-02T00:24:49.101Z,11.40
2022-10-02T00:27:22.763Z,11.40
2022-10-02T00:29:52.609Z,11.40
2022-10-02T00:32:23.599Z,11.40
2022-10-02T00:34:57.096Z,11.40
2022-10-02T00:37:33.699Z,11.40
2022-10-02T00:40:04.560Z,11.40
2022-10-02T00:42:43.762Z,11.30
2022-10-02T00:45:24.838Z,11.30
2022-10-02T00:47:54.471Z,11.30
2022-10-02T00:50:27.929Z,11.30
2022-10-02T00:53:03.939Z,11.30
2022-10-02T00:55:39.489Z,11.30
2022-10-02T00:58:19.673Z,11.90
2022-10-02T01:00:50.623Z,11.30
2022-10-02T01:03:19.446Z,11.30
2022-10-02T01:05:47.435Z,11.30
2022-10-02T01:08:16.901Z,11.30
2022-10-02T01:10:45.087Z,11.30
2022-10-02T01:13:13.452Z,11.30
2022-10-02T01:15:44.831Z,11.30
2022-10-02T01:18:14.885Z,11.30
2022-10-02T01:20:45.016Z,11.30
2022-10-02T01:23:18.197Z,11.30
2022-10-02T01:25:48.089Z,11.40
2022-10-02T01:28:16.160Z,11.40
2022-10-02T01:30:46.691Z,11.40
2022-10-02T01:33:15.038Z,11.40
2022-10-02T01:35:43.277Z,11.50
2022-10-02T01:38:12.601Z,11.50
2022-10-02T01:40:41.528Z,11.50
2022-10-02T01:43:11.933Z,11.50
2022-10-02T01:45:49.537Z,11.50
2022-10-02T01:48:20.691Z,11.60
2022-10-02T01:50:53.854Z,11.60
2022-10-02T01:53:25.750Z,11.60
2022-10-02T01:55:57.220Z,11.60
2022-10-02T01:58:30.723Z,11.50
2022-10-02T02:01:04.484Z,11.50
2022-10-02T02:03:37.402Z,11.50
2022-10-02T02:06:09.997Z,11.50
2022-10-02T02:08:41.940Z,11.50
2022-10-02T02:11:12.557Z,10.10
2022-10-02T02:13:45.772Z,11.40
2022-10-02T02:16:17.841Z,11.40
2022-10-02T02:18:49.686Z,11.40
2022-10-02T02:21:22.243Z,11.30
2022-10-02T02:23:50.903Z,11.30
2022-10-02T02:26:19.633Z,12.50
2022-10-02T02:28:50.636Z,11.20
2022-10-02T02:31:20.114Z,11.10
2022-10-02T02:33:51.542Z,11.10
2022-10-02T02:36:20.905Z,11.10
2022-10-02T02:38:51.006Z,11.10
2022-10-02T02:41:21.470Z,11.10
2022-10-02T02:43:55.048Z,11.10
2022-10-02T02:46:26.191Z,11.10
2022-10-02T02:48:58.013Z,11.00
2022-10-02T02:51:27.970Z,11.00
2022-10-02T02:53:59.868Z,11.00
2022-10-02T02:56:28.857Z,11.00
2022-10-02T02:59:00.190Z,11.00
2022-10-02T03:01:28.266Z,11.00
2022-10-02T03:03:56.236Z,11.00
2022-10-02T03:06:33.413Z,11.00
2022-10-02T03:09:02.219Z,11.00
2022-10-02T03:11:38.392Z,11.00
2022-10-02T03:14:12.649Z,11.00
2022-10-02T03:16:43.849Z,10.90
2022-10-02T03:19:17.489Z,11.00
2022-10-02T03:21:49.994Z,11.00
2022-10-02T03:24:21.376Z,11.00
2022-10-02T03:26:54.810Z,11.00
2022-10-02T03:29:26.383Z,10.90
2022-10-02T03:31:54.788Z,10.90
2022-10-02T03:34:23.599Z,10.90
2022-10-02T03:36:51.711Z,10.90
2022-10-02T03:39:25.330Z,10.90
2022-10-02T03:41:54.587Z,10.90
2022-10-02T03:44:23.784Z,10.90
2022-10-02T03:46:51.818Z,10.90
2022-10-02T03:49:19.781Z,10.90
2022-10-02T03:51:47.714Z,10.80
2022-10-02T03:54:17.537Z,10.90
2022-10-02T03:56:47.996Z,10.80
2022-10-02T03:59:19.480Z,10.80
2022-10-02T04:01:51.197Z,10.90
2022-10-02T04:04:22.510Z,10.80
2022-10-02T04:06:53.117Z,10.80
2022-10-02T04:09:23.666Z,10.80
2022-10-02T04:11:55.498Z,10.80
2022-10-02T04:14:25.697Z,10.80
2022-10-02T04:16:57.877Z,10.90
2022-10-02T04:19:26.932Z,10.80
2022-10-02T04:21:57.343Z,10.90
2022-10-02T04:24:29.608Z,10.90
2022-10-02T04:27:01.303Z,10.90
2022-10-02T04:29:33.254Z,10.90
2022-10-02T04:32:06.743Z,10.90
2022-10-02T04:34:34.576Z,10.90
2022-10-02T04:37:10.035Z,11.00
2022-10-02T04:39:46.727Z,10.90
2022-10-02T04:42:21.104Z,11.00
2022-10-02T04:44:54.952Z,11.00
2022-10-02T04:47:43.422Z,11.00
2022-10-02T04:50:23.547Z,11.00
2022-10-02T04:53:03.717Z,11.10
2022-10-02T04:55:38.525Z,11.10
2022-10-02T04:58:18.525Z,11.10
2022-10-02T05:00:48.435Z,11.10
2022-10-02T05:03:31.888Z,11.10
2022-10-02T05:06:09.686Z,11.20
2022-10-02T05:08:48.196Z,11.10
2022-10-02T05:11:24.660Z,11.20
2022-10-02T05:14:02.426Z,11.20
2022-10-02T05:16:51.012Z,11.20
2022-10-02T05:19:30.547Z,11.20
2022-10-02T05:22:07.536Z,11.20
2022-10-02T05:24:51.553Z,11.20
2022-10-02T05:27:37.067Z,11.20
2022-10-02T05:30:08.129Z,11.20
2022-10-02T05:32:52.933Z,11.20
2022-10-02T05:35:26.862Z,11.30
2022-10-02T05:38:04.633Z,11.30
2022-10-02T05:40:34.982Z,11.20
2022-10-02T05:43:05.419Z,11.30
2022-10-02T05:45:36.253Z,11.30
2022-10-02T05:48:07.303Z,11.20
2022-10-02T05:50:36.443Z,11.20
2022-10-02T05:53:06.888Z,11.20
2022-10-02T05:55:36.433Z,11.20
2022-10-02T05:58:06.078Z,11.20
2022-10-02T06:00:38.433Z,11.10
2022-10-02T06:03:11.208Z,11.10
2022-10-02T06:05:44.389Z,11.10
2022-10-02T06:08:16.336Z,11.10
2022-10-02T06:10:45.919Z,11.10
2022-10-02T06:13:16.732Z,11.10
2022-10-02T06:15:48.062Z,11.10
2022-10-02T06:18:17.609Z,11.10
2022-10-02T06:20:48.346Z,11.10
2022-10-02T06:23:20.434Z,11.10
2022-10-02T06:25:52.333Z,11.10
2022-10-02T06:28:22.417Z,11.10
2022-10-02T06:30:52.297Z,11.20
2022-10-02T06:33:21.945Z,11.20
2022-10-02T06:35:59.761Z,11.20
2022-10-02T06:38:35.484Z,11.20
2022-10-02T06:41:08.604Z,11.30
2022-10-02T06:43:43.585Z,11.30
2022-10-02T06:46:19.814Z,11.30
2022-10-02T06:48:52.993Z,11.30
2022-10-02T06:51:23.059Z,11.30
2022-10-02T06:53:58.279Z,11.30
2022-10-02T06:56:35.759Z,11.40
2022-10-02T06:59:09.632Z,11.40
2022-10-02T07:01:47.185Z,11.40
2022-10-02T07:04:24.545Z,11.40
2022-10-02T07:07:02.414Z,11.50
2022-10-02T07:09:37.484Z,11.50
2022-10-02T07:12:10.789Z,11.50
2022-10-02T07:14:51.204Z,11.60
2022-10-02T07:17:26.542Z,11.60
2022-10-02T07:20:05.540Z,11.60
2022-10-02T07:22:44.933Z,11.90
2022-10-02T07:25:31.101Z,11.70
2022-10-02T07:28:06.406Z,11.70
2022-10-02T07:30:39.645Z,13.90
2022-10-02T07:33:10.653Z,11.80
2022-10-02T07:35:40.775Z,11.80
2022-10-02T07:38:16.794Z,11.90
2022-10-02T07:40:49.475Z,11.90
2022-10-02T07:43:27.856Z,12.00
2022-10-02T07:45:58.483Z,12.00
2022-10-02T07:48:41.294Z,12.00
2022-10-02T07:51:29.135Z,12.10
2022-10-02T07:53:59.657Z,12.20
2022-10-02T07:56:28.319Z,12.20
2022-10-02T07:59:01.039Z,12.30
2022-10-02T08:01:31.812Z,12.40
2022-10-02T08:04:01.429Z,12.40
2022-10-02T08:06:29.869Z,12.40
2022-10-02T08:09:00.081Z,12.40
2022-10-02T08:11:30.375Z,12.50
2022-10-02T08:14:03.321Z,12.50
2022-10-02T08:16:34.922Z,12.50
2022-10-02T08:19:08.090Z,12.60
2022-10-02T08:21:39.836Z,12.60
2022-10-02T08:24:11.738Z,12.60
2022-10-02T08:26:42.559Z,12.70
2022-10-02T08:29:13.318Z,12.70
2022-10-02T08:31:41.252Z,12.70
2022-10-02T08:34:13.975Z,12.70
2022-10-02T08:37:00.192Z,12.60
2022-10-02T08:39:36.394Z,12.70
2022-10-02T08:42:37.212Z,12.70
2022-10-02T08:45:26.180Z,12.70
2022-10-02T08:48:22.565Z,12.80
2022-10-02T08:51:10.305Z,12.80
2022-10-02T08:53:53.354Z,12.80
2022-10-02T08:56:28.034Z,12.90
2022-10-02T08:59:13.156Z,13.00
2022-10-02T09:02:00.265Z,13.00
2022-10-02T09:04:41.480Z,13.10
2022-10-02T09:07:31.307Z,13.10
2022-10-02T09:10:23.070Z,13.20
2022-10-02T09:13:24.019Z,13.30
2022-10-02T09:16:00.119Z,13.30
2022-10-02T09:18:39.827Z,13.30
2022-10-02T09:21:17.880Z,13.30
2022-10-02T09:24:09.502Z,13.30
2022-10-02T09:26:45.012Z,13.30
2022-10-02T09:29:35.034Z,13.30
2022-10-02T09:32:36.115Z,13.30
2022-10-02T09:35:23.107Z,13.30
2022-10-02T09:38:11.060Z,13.30
2022-10-02T09:40:58.997Z,13.30
2022-10-02T09:43:51.441Z,13.30
2022-10-02T09:46:30.452Z,13.40
2022-10-02T09:49:10.153Z,13.30
2022-10-02T09:51:47.059Z,13.40
2022-10-02T09:54:48.116Z,13.40
2022-10-02T09:57:31.807Z,13.50
2022-10-02T10:00:14.141Z,13.60
2022-10-02T10:03:17.994Z,13.60
2022-10-02T10:06:19.149Z,13.60
2022-10-02T10:08:56.291Z,13.70
2022-10-02T10:11:39.784Z,13.80
2022-10-02T10:14:20.773Z,13.90
2022-10-02T10:17:08.962Z,14.00
2022-10-02T10:19:49.559Z,14.00
2022-10-02T10:22:39.014Z,14.10
2022-10-02T10:25:19.145Z,14.10
2022-10-02T10:28:20.380Z,14.20
2022-10-02T10:31:03.293Z,14.30
2022-10-02T10:33:41.259Z,14.40
2022-10-02T10:36:31.995Z,14.40
2022-10-02T10:39:07.219Z,14.40
2022-10-02T10:41:45.283Z,14.50
2022-10-02T10:44:21.866Z,14.50
2022-10-02T10:46:59.380Z,14.60
2022-10-02T10:49:42.128Z,14.70
2022-10-02T10:52:16.124Z,14.80
2022-10-02T10:54:55.138Z,14.80
2022-10-02T10:57:27.105Z,14.80
2022-10-02T11:00:07.191Z,14.90
2022-10-02T11:02:54.763Z,15.00
2022-10-02T11:05:41.290Z,15.10
2022-10-02T11:08:21.104Z,15.10
2022-10-02T11:10:56.857Z,15.20
2022-10-02T11:13:44.024Z,15.30
2022-10-02T11:16:24.417Z,15.30
2022-10-02T11:19:01.727Z,15.30
2022-10-02T11:21:38.454Z,15.30
2022-10-02T11:24:15.928Z,15.30
2022-10-02T11:26:58.531Z,15.30
2022-10-02T11:29:39.993Z,15.40
2022-10-02T11:32:28.277Z,15.40
2022-10-02T11:35:17.086Z,15.50
2022-10-02T11:37:50.866Z,15.50
2022-10-02T11:40:27.481Z,15.60
2022-10-02T11:43:03.712Z,15.60
2022-10-02T11:45:43.636Z,15.70
2022-10-02T11:48:19.660Z,15.70
2022-10-02T11:50:53.616Z,15.80
2022-10-02T11:53:32.111Z,15.80
2022-10-02T11:56:08.430Z,15.90
2022-10-02T11:58:45.468Z,16.10
2022-10-02T12:01:20.011Z,16.10
2022-10-02T12:03:53.950Z,16.00
2022-10-02T12:06:29.599Z,15.90
2022-10-02T12:09:02.573Z,15.40
2022-10-02T12:11:35.695Z,15.00
2022-10-02T12:14:10.634Z,14.80
2022-10-02T12:16:46.149Z,14.80
2022-10-02T12:19:22.916Z,14.80
2022-10-02T12:22:14.952Z,14.80
2022-10-02T12:25:04.332Z,15.00
2022-10-02T12:27:50.854Z,15.10
2022-10-02T12:30:22.379Z,15.30
2022-10-02T12:33:10.458Z,15.50
2022-10-02T12:35:48.975Z,15.70
2022-10-02T12:38:23.751Z,16.90
2022-10-02T12:40:58.504Z,16.20
2022-10-02T12:43:53.161Z,16.20
2022-10-02T12:46:30.084Z,16.10
2022-10-02T12:49:03.592Z,15.90
2022-10-02T12:51:35.450Z,15.90
2022-10-02T12:54:17.921Z,15.70
2022-10-02T12:57:38.914Z,15.70
2022-10-02T13:00:14.425Z,15.90
2022-10-02T13:03:12.517Z,15.80
2022-10-02T13:05:52.438Z,15.90
2022-10-02T13:08:26.651Z,16.10
2022-10-02T13:11:00.844Z,16.40
2022-10-02T13:13:36.302Z,16.70
2022-10-02T13:16:10.100Z,17.00
2022-10-02T13:18:44.770Z,17.20
2022-10-02T13:21:17.203Z,17.30
2022-10-02T13:23:47.732Z,17.70
2022-10-02T13:26:21.162Z,17.90
2022-10-02T13:28:59.602Z,17.70
2022-10-02T13:31:36.919Z,17.30
2022-10-02T13:34:13.580Z,17.20
2022-10-02T13:36:51.516Z,17.10
2022-10-02T13:39:30.484Z,17.30
2022-10-02T13:42:05.311Z,17.50
2022-10-02T13:44:37.095Z,17.80
2022-10-02T13:47:19.927Z,17.90
2022-10-02T13:49:58.476Z,18.20
2022-10-02T13:52:31.784Z,18.30
2022-10-02T13:55:13.197Z,18.20
2022-10-02T13:57:49.882Z,17.90
2022-10-02T14:00:23.778Z,17.50
2022-10-02T14:03:00.222Z,17.30
2022-10-02T14:05:33.113Z,17.20
2022-10-02T14:08:06.957Z,17.50
2022-10-02T14:10:37.930Z,17.40
2022-10-02T14:13:11.041Z,17.20
2022-10-02T14:15:45.759Z,17.00
2022-10-02T14:18:26.267Z,17.00
2022-10-02T14:20:56.936Z,17.30
2022-10-02T14:23:40.605Z,17.50
2022-10-02T14:26:13.434Z,17.70
2022-10-02T14:28:52.346Z,18.10
2022-10-02T14:31:29.167Z,18.40
2022-10-02T14:34:15.878Z,18.80
2022-10-02T14:36:49.266Z,18.90
2022-10-02T14:39:26.221Z,19.20
2022-10-02T14:42:00.228Z,19.50
2022-10-02T14:44:38.730Z,19.80
2022-10-02T14:47:15.451Z,19.90
2022-10-02T14:50:11.041Z,19.20
2022-10-02T14:52:57.765Z,19.30
2022-10-02T14:55:31.133Z,19.10
2022-10-02T14:58:05.586Z,19.30
2022-10-02T15:00:38.506Z,19.40
2022-10-02T15:03:21.243Z,19.40
2022-10-02T15:05:55.805Z,19.00
2022-10-02T15:08:27.450Z,18.90
2022-10-02T15:10:57.331Z,18.80
2022-10-02T15:13:28.522Z,19.00
2022-10-02T15:16:13.412Z,18.90
2022-10-02T15:18:44.238Z,18.80
2022-10-02T15:21:19.913Z,18.80
2022-10-02T15:23:49.741Z,18.80
2022-10-02T15:26:41.772Z,18.50
2022-10-02T15:29:21.316Z,18.70
2022-10-02T15:32:07.103Z,18.90
2022-10-02T15:34:37.161Z,18.70
2022-10-02T15:37:12.490Z,18.50
2022-10-02T15:39:50.257Z,18.40
2022-10-02T15:42:20.936Z,18.50
2022-10-02T15:45:16.922Z,18.40
2022-10-02T15:47:53.244Z,18.40
2022-10-02T15:50:25.859Z,18.30
2022-10-02T15:52:57.338Z,18.20
2022-10-02T15:55:29.832Z,18.10
2022-10-02T15:58:08.821Z,18.20
2022-10-02T16:00:59.472Z,18.10
2022-10-02T16:03:31.108Z,18.00
2022-10-02T16:06:01.576Z,17.80
2022-10-02T16:08:47.718Z,17.70
2022-10-02T16:11:23.861Z,17.60
2022-10-02T16:14:00.340Z,17.50
2022-10-02T16:16:45.887Z,17.50
2022-10-02T16:19:19.783Z,17.50
2022-10-02T16:21:55.294Z,17.40
2022-10-02T16:24:32.460Z,17.40
2022-10-02T16:27:14.007Z,17.30
2022-10-02T16:29:49.810Z,17.30
2022-10-02T16:32:22.880Z,17.10
2022-10-02T16:35:11.337Z,17.00
2022-10-02T16:37:46.101Z,16.90
2022-10-02T16:40:27.118Z,16.80
2022-10-02T16:43:12.793Z,16.70
2022-10-02T16:45:47.243Z,16.50
2022-10-02T16:48:17.253Z,16.30
2022-10-02T16:51:04.651Z,16.20
2022-10-02T16:53:35.617Z,16.20
2022-10-02T16:56:08.415Z,16.10
2022-10-02T16:58:42.459Z,16.10
2022-10-02T17:01:22.276Z,16.10
2022-10-02T17:04:06.894Z,15.90
2022-10-02T17:06:40.261Z,15.80
2022-10-02T17:09:14.388Z,15.80
2022-10-02T17:11:48.311Z,15.80
2022-10-02T17:14:19.342Z,15.70
2022-10-02T17:16:55.728Z,15.60
2022-10-02T17:19:26.147Z,15.50
2022-10-02T17:21:55.723Z,15.50
2022-10-02T17:24:34.959Z,15.40
2022-10-02T17:27:08.107Z,15.30
2022-10-02T17:29:41.228Z,15.30
2022-10-02T17:32:10.619Z,15.20
2022-10-02T17:34:46.377Z,15.10
2022-10-02T17:37:40.757Z,15.00
2022-10-02T17:40:13.983Z,14.90
2022-10-02T17:42:45.615Z,14.90
2022-10-02T17:45:28.758Z,14.80
2022-10-02T17:48:14.800Z,14.60
2022-10-02T17:50:50.111Z,14.60
2022-10-02T17:53:43.297Z,14.50
2022-10-02T17:56:31.009Z,14.50
2022-10-02T17:59:07.510Z,14.50
2022-10-02T18:01:40.583Z,14.40
2022-10-02T18:04:14.121Z,14.30
2022-10-02T18:07:00.348Z,14.30
2022-10-02T18:09:41.993Z,14.30
2022-10-02T18:12:25.728Z,14.20
2022-10-02T18:15:02.145Z,14.20
2022-10-02T18:17:34.111Z,14.10
2022-10-02T18:20:05.225Z,14.20
2022-10-02T18:22:43.105Z,14.10
2022-10-02T18:25:21.128Z,14.10
2022-10-02T18:27:56.743Z,14.20
2022-10-02T18:30:26.088Z,14.20
2022-10-02T18:33:03.008Z,14.10
2022-10-02T18:35:47.202Z,14.10
2022-10-02T18:38:22.786Z,14.10
2022-10-02T18:41:02.033Z,14.10
2022-10-02T18:43:41.268Z,14.00
2022-10-02T18:46:16.588Z,14.00
2022-10-02T18:48:51.427Z,14.10
2022-10-02T18:51:24.654Z,13.90
2022-10-02T18:54:03.283Z,13.90
2022-10-02T18:56:51.379Z,13.80
2022-10-02T18:59:23.172Z,13.80
2022-10-02T19:01:55.560Z,13.80
2022-10-02T19:04:32.281Z,13.80
2022-10-02T19:07:03.842Z,13.70
2022-10-02T19:09:33.094Z,13.60
2022-10-02T19:12:05.158Z,13.60
2022-10-02T19:14:37.098Z,13.60
2022-10-02T19:17:06.111Z,13.50
2022-10-02T19:19:34.012Z,13.50
2022-10-02T19:22:02.864Z,13.50
2022-10-02T19:24:34.914Z,13.40
2022-10-02T19:27:04.773Z,13.40
2022-10-02T19:29:36.752Z,13.40
2022-10-02T19:32:13.695Z,13.30
2022-10-02T19:34:43.647Z,13.30
2022-10-02T19:37:15.113Z,13.30
2022-10-02T19:39:48.539Z,13.30
2022-10-02T19:42:17.891Z,13.20
2022-10-02T19:44:47.295Z,13.20
2022-10-02T19:47:17.078Z,13.10
2022-10-02T19:49:47.718Z,13.10
2022-10-02T19:52:30.474Z,13.10
2022-10-02T19:55:04.501Z,13.10
2022-10-02T19:57:36.348Z,13.10
2022-10-02T20:00:07.368Z,13.00
2022-10-02T20:02:36.223Z,13.00
2022-10-02T20:05:06.287Z,13.00
2022-10-02T20:07:36.114Z,12.90
2022-10-02T20:10:07.193Z,12.90
2022-10-02T20:12:39.153Z,12.80
2022-10-02T20:15:10.092Z,12.80
2022-10-02T20:17:37.473Z,12.80
2022-10-02T20:20:07.954Z,12.80
2022-10-02T20:22:38.098Z,12.70
2022-10-02T20:25:09.258Z,12.70
2022-10-02T20:27:39.731Z,12.70
2022-10-02T20:30:12.231Z,12.70
2022-10-02T20:32:42.015Z,12.60
2022-10-02T20:35:14.276Z,12.60
2022-10-02T20:37:43.772Z,12.60
2022-10-02T20:40:15.933Z,12.50
2022-10-02T20:42:48.479Z,12.50
2022-10-02T20:45:17.162Z,12.50
2022-10-02T20:48:04.064Z,12.50
2022-10-02T20:50:41.075Z,12.40
2022-10-02T20:53:26.703Z,12.40
2022-10-02T20:55:59.513Z,12.40
2022-10-02T20:58:54.308Z,12.40
2022-10-02T21:01:22.813Z,12.40
2022-10-02T21:06:41.458Z,12.30
2022-10-02T21:09:22.843Z,12.30
2022-10-02T21:12:05.576Z,12.30
2022-10-02T21:14:46.363Z,12.20
2022-10-02T21:17:22.510Z,12.20
2022-10-02T21:20:01.103Z,12.20
2022-10-02T21:22:49.800Z,12.20
2022-10-02T21:25:36.755Z,12.20
2022-10-02T21:28:16.661Z,12.20
2022-10-02T21:30:54.206Z,12.20
2022-10-02T21:33:23.041Z,12.20
2022-10-02T21:35:54.071Z,12.10
2022-10-02T21:38:43.872Z,12.20
2022-10-02T21:41:30.305Z,12.10
2022-10-02T21:44:17.852Z,12.00
2022-10-02T21:47:07.257Z,12.00
2022-10-02T21:49:47.849Z,12.00
2022-10-02T21:52:31.383Z,12.00
2022-10-02T21:55:27.156Z,12.00
2022-10-02T21:58:19.076Z,11.90
2022-10-02T22:01:03.632Z,11.90
2022-10-02T22:03:50.482Z,11.90
2022-10-02T22:06:25.667Z,11.90
2022-10-02T22:09:07.009Z,11.90
2022-10-02T22:11:40.015Z,11.90
2022-10-02T22:14:10.020Z,11.80
2022-10-02T22:16:42.374Z,11.80
2022-10-02T22:19:14.755Z,11.80
2022-10-02T22:21:52.952Z,11.80
2022-10-02T22:24:31.032Z,11.80
2022-10-02T22:27:07.727Z,11.80
2022-10-02T22:29:40.596Z,11.70
2022-10-02T22:32:29.243Z,11.70
2022-10-02T22:35:01.002Z,11.70
2022-10-02T22:37:38.880Z,11.70
2022-10-02T22:40:09.634Z,11.70
2022-10-02T22:42:40.545Z,11.60
2022-10-02T22:45:13.156Z,11.70
2022-10-02T22:47:43.317Z,11.60
2022-10-02T22:50:13.740Z,11.60
2022-10-02T22:52:47.333Z,11.60
2022-10-02T22:55:18.694Z,11.60
2022-10-02T22:57:49.833Z,11.60
2022-10-02T23:00:19.705Z,11.50
2022-10-02T23:02:52.706Z,11.50
2022-10-02T23:05:24.578Z,11.50
2022-10-02T23:07:55.579Z,11.50
2022-10-02T23:10:28.231Z,11.50
2022-10-02T23:13:00.856Z,11.50
2022-10-02T23:15:32.083Z,11.50
2022-10-02T23:18:02.569Z,11.50
2022-10-02T23:20:33.955Z,11.40
2022-10-02T23:23:06.998Z,11.40
2022-10-02T23:25:37.112Z,11.50
2022-10-02T23:28:08.277Z,11.40
2022-10-02T23:30:39.605Z,11.40
2022-10-02T23:33:16.552Z,11.40
2022-10-02T23:35:48.164Z,11.40
2022-10-02T23:38:20.379Z,11.40
2022-10-02T23:41:16.322Z,11.40
2022-10-02T23:43:48.731Z,11.40
2022-10-02T23:46:19.994Z,11.40
2022-10-02T23:48:47.996Z,11.40
2022-10-02T23:51:17.560Z,11.40
2022-10-02T23:54:00.727Z,11.30
2022-10-02T23:56:48.507Z,11.30
2022-10-02T23:59:25.133Z,11.30
